Friday, July 20, 2018, 12:37 PM EDT
Back to Local

KAGC, Pittsburgh Allegheny Cty.

Location: West Mifflin, PA, United States Lat: 40.35
Local Time: 12:37 PM EDT (16:37 GMT) Lon: -79.917
Time Zone: US/Eastern Elev: 1253 ft

Show me the last for .
Show Decoded

2018-07-20 11:53 METAR KAGC 201553Z 17009G16KT 10SM CLR 28/17 A3002 RMK AO2 SLP159 T02780167 =
2018-07-20 10:53 METAR KAGC 201453Z 19009KT 10SM CLR 27/17 A3003 RMK AO2 SLP162 T02670167 58006 =
2018-07-20 09:53 METAR KAGC 201353Z 16006KT 10SM CLR 24/16 A3004 RMK AO2 SLP166 T02440161 =
2018-07-20 08:53 METAR KAGC 201253Z 16009KT 10SM FEW065 22/16 A3004 RMK AO2 SLP169 T02220156 =
2018-07-20 07:53 METAR KAGC 201153Z 14006KT 10SM FEW065 21/15 A3004 RMK AO2 SLP169 T02060150
                 10211 20183 53001 =
2018-07-20 06:53 METAR KAGC 201053Z 13007KT 10SM SCT070 20/14 A3003 RMK AO2 SLP166 T02000144 =
2018-07-20 05:53 METAR KAGC 200953Z 13006KT 10SM CLR 19/14 A3003 RMK AO2 SLP165 T01890144 =
2018-07-20 04:53 METAR KAGC 200853Z 14005KT 10SM CLR 19/14 A3004 RMK AO2 SLP168 T01890144 55000 =
2018-07-20 03:53 METAR KAGC 200753Z AUTO 14004KT 10SM CLR 18/15 A3004 RMK AO2 SLP167 T01830150 =
2018-07-20 02:53 METAR KAGC 200653Z AUTO 15004KT 10SM CLR 19/15 A3004 RMK AO2 SLP166 T01940150 =
2018-07-20 01:53 METAR KAGC 200553Z 15006KT 10SM CLR 21/15 A3004 RMK AO2 SLP168 T02060150 10272
                 20206 58000 =
2018-07-20 00:53 METAR KAGC 200453Z 14004KT 10SM CLR 21/15 A3005 RMK AO2 SLP171 T02110150
                 402830156 =
2018-07-19 23:53 METAR KAGC 200353Z 12006KT 10SM CLR 22/15 A3005 RMK AO2 SLP170 T02170150 =
2018-07-19 22:53 METAR KAGC 200253Z 11005KT 10SM CLR 23/15 A3004 RMK AO2 SLP168 T02280150 53005 =
2018-07-19 21:53 METAR KAGC 200153Z 10005KT 10SM CLR 23/15 A3004 RMK AO2 SLP168 T02280150 =
2018-07-19 20:53 METAR KAGC 200053Z 09004KT 10SM CLR 25/14 A3003 RMK AO2 SLP165 T02500139 =
2018-07-19 19:53 METAR KAGC 192353Z 00000KT 10SM CLR 27/14 A3003 RMK AO2 SLP164 T02720144 10283
                 20267 56009 =
2018-07-19 18:53 METAR KAGC 192253Z 10005KT 10SM CLR 28/14 A3003 RMK AO2 SLP166 T02780139 =
2018-07-19 17:53 METAR KAGC 192153Z VRB03KT 10SM CLR 28/14 A3004 RMK AO2 SLP170 T02830139 =
2018-07-19 16:53 METAR KAGC 192053Z 15005KT 10SM CLR 28/13 A3005 RMK AO2 SLP173 T02780133 56013 =
2018-07-19 15:53 METAR KAGC 191953Z 00000KT 10SM CLR 28/14 A3006 RMK AO2 SLP176 T02780139 =
2018-07-19 14:53 METAR KAGC 191853Z 22005KT 10SM CLR 27/12 A3007 RMK AO2 SLP181 T02670122 =
2018-07-19 13:53 METAR KAGC 191753Z 10SM CLR 27/13 A3009 RMK AO2 SLP187 T02670133 10267 20172
                 58009 =
2018-07-19 12:53 METAR KAGC 191653Z VRB05KT 10SM CLR 26/12 A3011 RMK AO2 SLP192 T02560122 =

Support USWX by starting your Amazon purchase here.